Time;durP1;ratioP1;P1;durP2;ratioP2;P2;SDS_P1;SDS_P2;PMS_P1;PMS_P2;Temp;Humidity;BMP_temperature;BMP_pressure;BME280_temperature;BME280_humidity;BME280_pressure;Samples;Min_cycle;Max_cycle;Signal;HPM_P1;HPM_P2
2022/06/27 00:01:39;;;;;;;4.47;4.17;;;18.60;99.90;;;;;;5031073;28;20531;-77
2022/06/27 00:04:06;;;;;;;4.23;3.90;;;18.50;99.90;;;;;;5030695;28;20457;-77
2022/06/27 00:06:34;;;;;;;4.80;3.93;;;18.40;99.90;;;;;;5027678;28;20994;-77
2022/06/27 00:09:00;;;;;;;10.00;4.67;;;18.40;99.90;;;;;;5011773;28;20458;-76
2022/06/27 00:11:27;;;;;;;4.27;3.87;;;18.40;99.90;;;;;;5011785;28;20520;-76
2022/06/27 00:13:54;;;;;;;4.70;4.30;;;18.40;99.90;;;;;;5011293;28;20473;-76
2022/06/27 00:16:20;;;;;;;6.73;4.10;;;18.30;99.90;;;;;;5012411;28;20998;-76
2022/06/27 00:18:47;;;;;;;4.17;3.87;;;18.30;99.90;;;;;;5030647;28;20871;-77
2022/06/27 00:21:14;;;;;;;4.43;4.03;;;18.30;99.90;;;;;;5030658;28;20473;-76
2022/06/27 00:23:42;;;;;;;3.70;3.40;;;18.30;99.90;;;;;;5019188;28;20479;-76
2022/06/27 00:26:08;;;;;;;5.10;3.90;;;18.20;99.90;;;;;;5011769;28;20867;-76
2022/06/27 00:28:35;;;;;;;4.63;4.20;;;18.20;99.90;;;;;;5019619;28;20521;-77
2022/06/27 00:31:02;;;;;;;3.90;3.60;;;18.20;99.90;;;;;;5031031;28;20444;-76
2022/06/27 00:33:28;;;;;;;9.77;3.70;;;18.20;99.90;;;;;;5029925;28;20428;-77
2022/06/27 00:35:55;;;;;;;8.33;3.43;;;18.20;99.90;;;;;;5034400;28;20515;-76
2022/06/27 00:38:22;;;;;;;4.40;3.13;;;18.20;99.90;;;;;;5017655;28;20454;-76
2022/06/27 00:40:50;;;;;;;3.03;2.83;;;18.30;99.90;;;;;;5019495;28;20825;-76
2022/06/27 00:43:16;;;;;;;3.63;3.30;;;18.20;99.90;;;;;;5027851;28;20432;-78
2022/06/27 00:45:43;;;;;;;2.93;2.73;;;18.20;99.90;;;;;;5017876;28;20458;-76
2022/06/27 00:48:10;;;;;;;3.83;2.60;;;18.20;99.90;;;;;;5022775;28;20454;-76
2022/06/27 00:50:37;;;;;;;7.47;3.33;;;18.10;99.90;;;;;;5017830;28;20456;-76
2022/06/27 00:53:04;;;;;;;7.67;3.20;;;18.20;99.90;;;;;;5014678;28;20699;-76
2022/06/27 00:55:30;;;;;;;9.70;3.07;;;18.20;99.90;;;;;;5024034;28;20449;-76
2022/06/27 00:58:00;;;;;;;3.40;3.10;;;18.20;99.90;;;;;;5026141;28;20520;-76
2022/06/27 01:00:27;;;;;;;3.00;2.80;;;18.20;99.90;;;;;;5033616;28;20449;-76
2022/06/27 01:02:54;;;;;;;3.03;2.83;;;18.10;99.90;;;;;;5033836;28;20521;-76
2022/06/27 01:05:21;;;;;;;3.23;3.03;;;18.10;99.90;;;;;;5033062;28;20800;-75
2022/06/27 01:07:48;;;;;;;3.30;3.10;;;18.10;99.90;;;;;;5030845;28;20599;-76
2022/06/27 01:10:15;;;;;;;3.83;3.47;;;18.10;99.90;;;;;;5014662;28;20425;-76
2022/06/27 01:12:43;;;;;;;3.90;3.60;;;18.10;99.90;;;;;;5014709;28;20454;-76
2022/06/27 01:15:12;;;;;;;4.10;3.70;;;18.10;99.90;;;;;;5015588;28;20421;-76
2022/06/27 01:17:39;;;;;;;4.37;3.97;;;18.10;99.90;;;;;;5015155;28;20980;-76
2022/06/27 01:20:07;;;;;;;5.30;4.00;;;18.10;99.90;;;;;;5028946;28;20457;-76
2022/06/27 01:22:36;;;;;;;4.87;4.47;;;18.10;99.90;;;;;;5014526;28;20827;-76
2022/06/27 01:25:03;;;;;;;4.30;3.93;;;18.10;99.90;;;;;;5014287;28;20458;-76
2022/06/27 01:27:30;;;;;;;3.83;3.53;;;18.10;99.90;;;;;;5014498;28;20470;-76
2022/06/27 01:29:56;;;;;;;4.33;3.93;;;18.00;99.90;;;;;;5032740;28;20482;-76
2022/06/27 01:32:23;;;;;;;4.40;4.00;;;18.00;99.90;;;;;;5033276;28;20558;-76
2022/06/27 01:34:50;;;;;;;3.47;3.27;;;18.00;99.90;;;;;;5032688;28;20461;-76
2022/06/27 01:37:16;;;;;;;4.27;3.80;;;18.00;99.90;;;;;;5033592;28;20481;-76
2022/06/27 01:39:45;;;;;;;10.43;4.70;;;18.00;99.90;;;;;;5031684;28;20453;-76
2022/06/27 01:42:11;;;;;;;4.93;4.33;;;18.00;99.90;;;;;;5025786;28;20886;-76
2022/06/27 01:44:38;;;;;;;4.73;4.33;;;18.00;99.90;;;;;;5031050;28;20457;-76
2022/06/27 01:47:08;;;;;;;4.33;4.03;;;18.00;99.90;;;;;;5033226;28;20998;-76
2022/06/27 01:49:36;;;;;;;4.33;3.87;;;18.00;99.90;;;;;;5012172;28;20451;-76
2022/06/27 01:52:05;;;;;;;5.87;4.57;;;18.00;99.90;;;;;;5013958;28;20503;-76
2022/06/27 01:54:32;;;;;;;5.27;4.77;;;18.00;99.90;;;;;;5009746;28;20454;-76
2022/06/27 01:57:00;;;;;;;4.20;3.90;;;18.00;99.90;;;;;;5032622;28;20485;-76
2022/06/27 01:59:29;;;;;;;6.10;4.50;;;18.00;99.90;;;;;;5032860;28;20474;-75
2022/06/27 02:01:58;;;;;;;7.30;4.80;;;18.00;99.90;;;;;;5030439;28;20448;-76
2022/06/27 02:04:25;;;;;;;5.80;4.50;;;17.90;99.90;;;;;;5013346;28;20461;-76
2022/06/27 02:06:53;;;;;;;5.23;4.77;;;17.90;99.90;;;;;;5023007;28;20424;-76
2022/06/27 02:09:20;;;;;;;5.10;4.57;;;17.90;99.90;;;;;;5032673;28;20449;-76
2022/06/27 02:11:49;;;;;;;7.70;5.23;;;17.90;99.90;;;;;;5031455;28;20455;-76
2022/06/27 02:14:18;;;;;;;6.80;4.97;;;17.80;99.90;;;;;;5013324;28;20436;-76
2022/06/27 02:16:45;;;;;;;7.73;5.27;;;17.80;99.90;;;;;;5013416;28;20489;-75
2022/06/27 02:19:13;;;;;;;6.63;5.07;;;17.70;99.90;;;;;;5013397;28;20552;-75
2022/06/27 02:21:41;;;;;;;6.27;5.67;;;17.60;99.90;;;;;;5013433;28;20539;-75
2022/06/27 02:24:08;;;;;;;10.77;6.00;;;17.50;99.90;;;;;;5019966;28;20449;-76
2022/06/27 02:26:36;;;;;;;5.70;5.00;;;17.50;99.90;;;;;;5032410;28;20424;-75
2022/06/27 02:29:03;;;;;;;7.20;5.80;;;17.60;99.90;;;;;;5015113;28;20432;-76
2022/06/27 02:31:31;;;;;;;11.80;5.37;;;17.50;99.90;;;;;;5014072;28;20495;-75
2022/06/27 02:33:59;;;;;;;6.73;6.00;;;17.60;99.90;;;;;;5021307;28;20481;-75
2022/06/27 02:36:28;;;;;;;7.03;5.83;;;17.60;99.90;;;;;;5032255;28;20511;-75
2022/06/27 02:38:56;;;;;;;7.13;5.77;;;17.60;99.90;;;;;;5031823;28;20561;-75
2022/06/27 02:41:27;;;;;;;9.70;6.10;;;17.60;99.90;;;;;;5019904;28;20522;-75
2022/06/27 02:44:00;;;;;;;5.30;4.80;;;17.70;99.90;;;;;;5020555;28;20514;-76
2022/06/27 02:46:27;;;;;;;5.90;5.40;;;17.70;99.90;;;;;;5032179;28;20498;-76
2022/06/27 02:48:55;;;;;;;7.40;5.43;;;17.60;99.90;;;;;;5014835;28;21002;-75
2022/06/27 02:51:25;;;;;;;7.77;6.00;;;17.60;99.90;;;;;;5018008;28;21048;-75
2022/06/27 02:53:57;;;;;;;5.73;4.70;;;17.60;99.90;;;;;;5012587;28;20492;-76
2022/06/27 02:56:28;;;;;;;5.33;4.87;;;17.50;99.90;;;;;;5016207;28;20421;-76
2022/06/27 02:59:01;;;;;;;7.37;5.17;;;17.50;99.90;;;;;;5016394;28;20490;-75
2022/06/27 03:01:30;;;;;;;8.53;5.50;;;17.40;99.90;;;;;;5010782;28;20495;-77
2022/06/27 03:03:59;;;;;;;17.33;5.90;;;17.40;99.90;;;;;;5012742;28;20429;-75
2022/06/27 03:06:26;;;;;;;8.30;5.90;;;17.40;99.90;;;;;;5020199;28;20432;-76
2022/06/27 03:08:53;;;;;;;7.03;6.33;;;17.40;99.90;;;;;;5022139;28;20868;-75
2022/06/27 03:11:21;;;;;;;8.67;6.80;;;17.40;99.90;;;;;;5031385;28;20596;-76
2022/06/27 03:13:48;;;;;;;6.57;5.70;;;17.40;99.90;;;;;;5025111;28;20433;-76
2022/06/27 03:16:16;;;;;;;7.03;6.10;;;17.50;99.90;;;;;;5013900;28;20480;-76
2022/06/27 03:18:43;;;;;;;6.87;6.27;;;17.50;99.90;;;;;;5030067;28;20467;-76
2022/06/27 03:21:12;;;;;;;6.80;6.00;;;17.50;99.90;;;;;;5021895;28;20449;-76
2022/06/27 03:23:39;;;;;;;7.40;6.70;;;17.60;99.90;;;;;;5015323;28;20424;-76
2022/06/27 03:26:06;;;;;;;8.40;6.53;;;17.50;99.90;;;;;;5031544;28;20428;-76
2022/06/27 03:28:33;;;;;;;8.27;7.47;;;17.60;99.90;;;;;;5031260;28;20835;-76
2022/06/27 03:30:59;;;;;;;14.10;7.07;;;17.60;99.90;;;;;;5029548;28;20455;-76
2022/06/27 03:33:26;;;;;;;6.63;5.90;;;17.60;99.90;;;;;;5020755;28;20421;-76
2022/06/27 03:35:53;;;;;;;6.07;5.57;;;17.60;99.90;;;;;;5025361;28;20482;-76
2022/06/27 03:38:20;;;;;;;7.07;6.33;;;17.60;99.90;;;;;;5031039;28;20534;-76
2022/06/27 03:40:47;;;;;;;7.73;5.93;;;17.60;99.90;;;;;;5024042;28;20531;-76
2022/06/27 03:43:14;;;;;;;5.40;4.90;;;17.60;99.90;;;;;;5019261;28;20432;-76
2022/06/27 03:45:40;;;;;;;8.40;5.87;;;17.60;99.90;;;;;;5012332;28;20483;-77
2022/06/27 03:48:08;;;;;;;6.30;5.70;;;17.70;99.90;;;;;;5011697;28;20929;-76
2022/06/27 03:50:34;;;;;;;6.43;5.83;;;17.70;99.90;;;;;;5012078;28;20530;-76
2022/06/27 03:53:02;;;;;;;5.13;4.63;;;17.70;99.90;;;;;;5012082;28;20447;-76
2022/06/27 03:55:30;;;;;;;7.17;5.60;;;17.70;99.90;;;;;;5015934;28;20475;-76
2022/06/27 03:57:59;;;;;;;7.30;5.13;;;17.80;99.90;;;;;;5011917;28;20992;-76
2022/06/27 04:00:27;;;;;;;7.10;4.80;;;17.80;99.90;;;;;;5011962;28;20952;-76
2022/06/27 04:02:54;;;;;;;6.10;5.50;;;17.80;99.90;;;;;;5012434;28;20509;-76
2022/06/27 04:05:21;;;;;;;7.27;4.70;;;17.90;99.90;;;;;;5027681;28;20564;-76
2022/06/27 04:07:47;;;;;;;8.10;5.27;;;17.90;99.90;;;;;;5031911;28;20421;-77
2022/06/27 04:10:14;;;;;;;5.50;5.00;;;17.90;99.90;;;;;;5034530;28;20431;-73
2022/06/27 04:12:42;;;;;;;5.60;5.07;;;17.90;99.90;;;;;;5034653;28;20530;-73
2022/06/27 04:15:10;;;;;;;5.53;5.03;;;17.90;99.90;;;;;;5026781;28;20457;-73
2022/06/27 04:17:38;;;;;;;5.30;4.43;;;17.90;99.90;;;;;;5034517;28;20460;-73
2022/06/27 04:20:06;;;;;;;4.90;4.50;;;17.90;99.90;;;;;;5028975;28;20475;-73
2022/06/27 04:22:33;;;;;;;4.67;4.37;;;17.80;99.90;;;;;;5015268;28;20532;-73
2022/06/27 04:25:01;;;;;;;4.77;4.47;;;17.80;99.90;;;;;;5028329;28;20424;-73
2022/06/27 04:27:28;;;;;;;5.47;4.87;;;17.90;99.90;;;;;;5017820;28;20447;-73
2022/06/27 04:29:56;;;;;;;5.30;4.90;;;17.90;99.90;;;;;;5015558;28;20523;-73
2022/06/27 04:32:24;;;;;;;5.10;4.80;;;17.90;99.90;;;;;;5014484;28;20453;-74
2022/06/27 04:34:51;;;;;;;4.97;4.57;;;17.90;99.90;;;;;;5010965;28;20507;-73
2022/06/27 04:37:18;;;;;;;5.10;4.70;;;18.00;99.90;;;;;;5026424;28;21204;-73
2022/06/27 04:39:46;;;;;;;5.40;4.90;;;18.00;99.90;;;;;;5027349;28;20431;-73
2022/06/27 04:42:13;;;;;;;8.80;4.73;;;18.00;99.90;;;;;;5028983;28;20509;-73
2022/06/27 04:44:41;;;;;;;9.50;5.00;;;18.00;99.90;;;;;;5015690;28;20464;-73
2022/06/27 04:47:13;;;;;;;5.57;5.07;;;18.00;99.90;;;;;;5014500;28;20433;-74
2022/06/27 04:49:41;;;;;;;12.60;5.50;;;18.00;99.90;;;;;;5022131;28;20437;-74
2022/06/27 04:52:08;;;;;;;5.43;5.03;;;18.00;99.90;;;;;;5031636;28;20563;-74
2022/06/27 04:54:36;;;;;;;7.53;5.30;;;18.00;99.90;;;;;;5027026;28;20507;-74
2022/06/27 04:57:04;;;;;;;5.40;4.60;;;18.00;99.90;;;;;;5014759;28;20588;-74
2022/06/27 04:59:30;;;;;;;9.40;5.00;;;18.00;99.90;;;;;;5014704;28;20488;-74
2022/06/27 05:01:57;;;;;;;5.50;5.10;;;18.00;99.90;;;;;;5017648;28;20535;-73
2022/06/27 05:04:28;;;;;;;6.93;5.20;;;18.00;99.90;;;;;;5033559;28;20428;-74
2022/06/27 05:06:55;;;;;;;7.43;4.80;;;18.10;99.90;;;;;;5029363;28;21060;-74
2022/06/27 05:09:22;;;;;;;5.83;5.23;;;18.10;99.90;;;;;;5025301;28;20445;-74
2022/06/27 05:11:50;;;;;;;5.73;5.13;;;18.10;99.90;;;;;;5032658;28;20594;-77
2022/06/27 05:14:17;;;;;;;5.10;4.70;;;18.20;99.90;;;;;;5033413;28;20434;-76
2022/06/27 05:16:43;;;;;;;5.63;5.23;;;18.30;99.90;;;;;;5032274;28;20457;-75
2022/06/27 05:19:10;;;;;;;4.97;4.50;;;18.40;99.90;;;;;;5033508;28;20891;-76
2022/06/27 05:21:38;;;;;;;6.30;4.67;;;18.50;99.90;;;;;;5032846;28;20512;-76
2022/06/27 05:24:06;;;;;;;4.97;4.53;;;18.70;99.90;;;;;;5024431;28;20454;-77
2022/06/27 05:26:32;;;;;;;11.67;4.83;;;18.80;99.90;;;;;;5014492;28;20428;-76
2022/06/27 05:29:01;;;;;;;7.80;5.90;;;18.90;99.90;;;;;;5014931;28;20501;-77
2022/06/27 05:31:28;;;;;;;7.13;4.87;;;19.00;99.90;;;;;;5014732;28;20470;-77
2022/06/27 05:33:54;;;;;;;5.43;5.03;;;19.00;99.90;;;;;;5024456;28;20424;-76
2022/06/27 05:36:21;;;;;;;6.07;4.50;;;19.10;99.90;;;;;;5009329;28;20895;-74
2022/06/27 05:38:49;;;;;;;4.90;4.33;;;19.20;99.90;;;;;;5028277;28;20488;-74
2022/06/27 05:41:17;;;;;;;4.40;4.00;;;19.20;99.90;;;;;;5003784;28;20466;-74
2022/06/27 05:43:43;;;;;;;4.13;3.83;;;19.20;99.90;;;;;;5011765;28;20458;-74
2022/06/27 05:46:10;;;;;;;4.53;4.23;;;19.20;99.90;;;;;;5012551;28;20466;-74
2022/06/27 05:48:38;;;;;;;5.03;4.00;;;19.20;99.90;;;;;;5012457;28;20457;-75
2022/06/27 05:51:05;;;;;;;4.83;4.40;;;19.20;99.90;;;;;;5013091;28;20482;-74
2022/06/27 05:53:32;;;;;;;4.63;4.23;;;19.30;99.90;;;;;;5017683;28;20507;-75
2022/06/27 05:56:00;;;;;;;4.70;4.30;;;19.40;99.90;;;;;;5018514;28;20546;-75
2022/06/27 05:58:27;;;;;;;4.10;3.73;;;19.50;99.90;;;;;;5013789;28;20490;-74
2022/06/27 06:00:54;;;;;;;4.20;3.90;;;19.50;99.90;;;;;;5024737;28;20501;-74
2022/06/27 06:03:21;;;;;;;4.30;4.00;;;19.60;99.90;;;;;;5018035;28;20485;-75
2022/06/27 06:05:48;;;;;;;5.07;4.47;;;19.60;99.90;;;;;;5011222;28;20864;-75
2022/06/27 06:08:15;;;;;;;4.40;4.10;;;19.60;99.90;;;;;;5013262;28;20446;-75
2022/06/27 06:10:42;;;;;;;4.23;3.93;;;19.60;99.90;;;;;;5013879;28;20484;-74
2022/06/27 06:13:10;;;;;;;3.73;3.53;;;19.70;99.90;;;;;;5011595;28;20896;-75
2022/06/27 06:15:38;;;;;;;4.13;3.83;;;19.80;99.90;;;;;;5007287;28;20450;-75
2022/06/27 06:18:05;;;;;;;3.50;3.30;;;19.80;99.90;;;;;;5025140;28;20509;-75
2022/06/27 06:20:32;;;;;;;3.60;3.40;;;19.80;99.90;;;;;;5015892;28;20454;-74
2022/06/27 06:22:59;;;;;;;4.50;4.20;;;19.90;99.90;;;;;;5023877;28;20835;-74
2022/06/27 06:25:26;;;;;;;4.67;4.27;;;20.00;99.90;;;;;;5005110;28;20446;-75
2022/06/27 06:27:56;;;;;;;4.43;4.13;;;20.10;99.90;;;;;;5010953;28;20482;-75
2022/06/27 06:30:24;;;;;;;5.10;4.53;;;20.20;99.90;;;;;;5004690;28;20469;-75
2022/06/27 06:32:51;;;;;;;4.70;4.30;;;20.30;99.90;;;;;;5018812;28;20461;-75
2022/06/27 06:35:18;;;;;;;6.50;4.07;;;20.40;99.90;;;;;;5016330;28;20477;-75
2022/06/27 06:37:45;;;;;;;4.83;3.50;;;20.40;99.90;;;;;;5010190;28;20462;-74
2022/06/27 06:40:13;;;;;;;9.90;3.90;;;20.50;99.90;;;;;;5012321;28;20454;-75
2022/06/27 06:42:40;;;;;;;4.97;3.87;;;20.40;99.90;;;;;;5011773;28;20553;-73
2022/06/27 06:45:07;;;;;;;5.53;4.07;;;20.30;99.90;;;;;;5010803;28;20534;-75
2022/06/27 06:47:42;;;;;;;6.53;4.33;;;20.20;99.90;;;;;;5010908;28;20454;-75
2022/06/27 06:50:10;;;;;;;4.93;4.43;;;20.10;99.90;;;;;;5019390;28;20454;-77
2022/06/27 06:52:38;;;;;;;10.20;5.80;;;20.00;99.90;;;;;;5012436;28;20482;-75
2022/06/27 06:55:06;;;;;;;6.60;4.73;;;19.90;99.90;;;;;;5019961;28;20464;-75
2022/06/27 06:57:32;;;;;;;6.30;5.17;;;19.80;99.90;;;;;;5031145;28;20460;-75
2022/06/27 06:59:59;;;;;;;4.60;4.20;;;19.70;99.90;;;;;;5017466;28;20477;-74
2022/06/27 07:02:26;;;;;;;7.70;5.40;;;19.60;99.90;;;;;;5010481;28;20884;-75
2022/06/27 07:04:54;;;;;;;4.87;4.40;;;19.60;99.90;;;;;;5011074;28;20463;-75
2022/06/27 07:07:23;;;;;;;7.43;4.00;;;19.60;99.90;;;;;;5015046;28;21202;-75
2022/06/27 07:09:49;;;;;;;9.20;3.90;;;19.70;99.90;;;;;;5012297;28;20470;-75
2022/06/27 07:12:16;;;;;;;5.57;4.20;;;19.90;99.90;;;;;;5010239;28;20470;-75
2022/06/27 07:14:45;;;;;;;3.93;3.63;;;20.10;99.90;;;;;;5010487;28;20450;-75
2022/06/27 07:17:12;;;;;;;4.40;4.00;;;20.30;99.90;;;;;;5015104;28;20457;-74
2022/06/27 07:19:39;;;;;;;6.37;4.10;;;20.40;99.90;;;;;;5022134;28;20535;-75
2022/06/27 07:22:07;;;;;;;4.90;4.07;;;20.50;99.90;;;;;;5015917;28;20485;-75
2022/06/27 07:24:34;;;;;;;8.90;4.60;;;20.60;99.90;;;;;;5004793;28;20680;-75
2022/06/27 07:27:01;;;;;;;3.90;3.50;;;20.70;99.90;;;;;;5016358;28;20451;-74
2022/06/27 07:29:28;;;;;;;3.73;3.43;;;20.50;99.90;;;;;;5010402;28;20462;-75
2022/06/27 07:31:55;;;;;;;4.03;3.63;;;20.40;99.90;;;;;;5012570;28;20849;-74
2022/06/27 07:34:23;;;;;;;7.50;4.10;;;20.50;99.90;;;;;;5015268;28;20462;-74
2022/06/27 07:36:50;;;;;;;4.53;4.13;;;20.50;99.90;;;;;;5017806;28;20468;-74
2022/06/27 07:39:18;;;;;;;4.20;3.90;;;20.60;99.90;;;;;;5009150;28;20881;-75
2022/06/27 07:41:45;;;;;;;4.27;3.70;;;20.80;99.90;;;;;;5015938;28;20479;-75
2022/06/27 07:44:12;;;;;;;4.50;3.30;;;21.10;99.90;;;;;;5019757;28;20480;-74
2022/06/27 07:46:39;;;;;;;4.00;3.70;;;21.40;99.90;;;;;;5020482;28;20441;-75
2022/06/27 07:49:06;;;;;;;3.63;3.37;;;21.50;99.90;;;;;;5015541;28;20454;-74
2022/06/27 07:51:35;;;;;;;4.10;3.70;;;21.60;99.90;;;;;;5016058;28;20482;-75
2022/06/27 07:54:03;;;;;;;3.77;3.40;;;21.40;99.90;;;;;;5017342;28;20446;-74
2022/06/27 07:56:32;;;;;;;3.77;3.57;;;21.50;99.90;;;;;;5018949;28;20516;-75
2022/06/27 07:58:59;;;;;;;4.27;3.87;;;21.50;99.90;;;;;;5026193;28;20994;-75
2022/06/27 08:01:28;;;;;;;4.70;3.90;;;21.50;99.90;;;;;;5018820;28;20532;-75
2022/06/27 08:03:54;;;;;;;4.10;3.80;;;21.60;99.90;;;;;;5015492;28;20485;-74
2022/06/27 08:06:24;;;;;;;4.30;3.90;;;21.70;99.90;;;;;;5014108;28;20509;-74
2022/06/27 08:08:54;;;;;;;3.80;3.47;;;21.90;99.90;;;;;;5011683;28;20458;-75
2022/06/27 08:11:22;;;;;;;4.33;3.87;;;22.10;99.90;;;;;;5015293;28;20908;-75
2022/06/27 08:13:52;;;;;;;4.23;3.77;;;22.20;99.90;;;;;;5009031;28;20458;-75
2022/06/27 08:16:21;;;;;;;4.33;3.90;;;22.40;99.90;;;;;;5024778;28;20469;-75
2022/06/27 08:18:50;;;;;;;5.50;3.70;;;22.70;99.90;;;;;;5028834;28;20563;-75
2022/06/27 08:21:20;;;;;;;4.70;3.80;;;22.80;99.90;;;;;;5023790;28;20540;-74
2022/06/27 08:23:48;;;;;;;4.80;3.93;;;22.40;99.90;;;;;;5014139;28;20556;-74
2022/06/27 08:26:16;;;;;;;6.73;4.83;;;22.40;99.90;;;;;;5019702;28;20458;-75
2022/06/27 08:28:46;;;;;;;4.33;3.97;;;22.20;99.90;;;;;;5021794;28;20455;-74
2022/06/27 08:31:14;;;;;;;8.60;4.30;;;22.10;99.90;;;;;;5013911;28;21064;-75
2022/06/27 08:33:44;;;;;;;4.70;4.37;;;22.10;99.90;;;;;;5015739;28;20458;-74
2022/06/27 08:36:12;;;;;;;6.30;4.30;;;22.10;99.90;;;;;;5021246;28;20462;-75
2022/06/27 08:38:46;;;;;;;6.17;4.17;;;22.10;99.90;;;;;;5017492;28;20470;-75
2022/06/27 08:41:13;;;;;;;4.47;4.00;;;22.10;99.90;;;;;;5018255;28;20477;-75
2022/06/27 08:43:40;;;;;;;4.40;4.10;;;22.10;99.90;;;;;;5016548;28;20442;-75
2022/06/27 08:46:08;;;;;;;4.50;4.10;;;22.20;99.90;;;;;;5015676;28;20938;-74
2022/06/27 08:48:41;;;;;;;4.70;4.30;;;22.60;99.90;;;;;;5015508;28;20457;-75
2022/06/27 08:51:08;;;;;;;6.93;4.30;;;22.90;99.90;;;;;;5024332;28;20560;-75
2022/06/27 08:53:36;;;;;;;5.03;4.33;;;23.00;99.90;;;;;;5021454;28;20507;-74
2022/06/27 08:56:05;;;;;;;4.53;4.10;;;22.90;99.90;;;;;;5021400;28;20463;-74
2022/06/27 08:58:31;;;;;;;4.43;4.00;;;22.80;99.90;;;;;;5018020;28;20456;-74
2022/06/27 09:00:59;;;;;;;4.20;3.90;;;22.60;99.90;;;;;;5029259;28;20469;-75
2022/06/27 09:03:25;;;;;;;4.73;3.80;;;22.30;99.90;;;;;;5033291;28;20889;-74
2022/06/27 09:05:58;;;;;;;7.20;4.77;;;22.10;99.90;;;;;;5018863;28;20454;-74
2022/06/27 09:08:28;;;;;;;4.63;4.23;;;22.20;99.90;;;;;;5019517;28;20541;-74
2022/06/27 09:10:56;;;;;;;4.63;4.27;;;22.20;99.90;;;;;;5013057;28;20998;-74
2022/06/27 09:13:24;;;;;;;5.47;4.83;;;22.30;99.90;;;;;;5013964;28;20454;-74
2022/06/27 09:15:54;;;;;;;6.27;4.87;;;22.70;99.90;;;;;;5017975;28;20485;-74
2022/06/27 09:18:22;;;;;;;7.23;4.60;;;23.00;99.90;;;;;;5020596;28;20536;-75
2022/06/27 09:20:57;;;;;;;5.70;4.47;;;23.20;99.90;;;;;;5012458;28;21005;-74
2022/06/27 09:23:44;;;;;;;4.20;3.83;;;23.40;99.90;;;;;;5013575;28;20450;-74
2022/06/27 09:26:14;;;;;;;5.00;3.80;;;23.40;99.90;;;;;;5016976;28;20456;-75
2022/06/27 09:28:47;;;;;;;4.87;3.50;;;23.40;99.90;;;;;;5025036;28;20548;-74
2022/06/27 09:31:30;;;;;;;4.93;3.60;;;23.20;99.90;;;;;;5015234;28;20498;-75
2022/06/27 09:34:08;;;;;;;4.17;3.83;;;23.30;99.90;;;;;;5016498;28;20454;-74
2022/06/27 09:36:39;;;;;;;3.73;3.43;;;23.20;99.90;;;;;;5020567;28;20450;-74
2022/06/27 09:39:10;;;;;;;10.90;4.30;;;23.20;99.90;;;;;;5014067;28;20570;-75
2022/06/27 09:41:40;;;;;;;6.03;4.30;;;23.00;99.90;;;;;;5016733;28;20513;-75
2022/06/27 09:44:11;;;;;;;3.97;3.67;;;23.10;99.90;;;;;;5012487;28;20457;-75
2022/06/27 09:46:42;;;;;;;3.90;3.60;;;23.20;99.90;;;;;;5013941;28;20913;-74
2022/06/27 09:49:12;;;;;;;4.10;3.80;;;23.40;99.90;;;;;;5015720;28;20476;-75
2022/06/27 09:51:41;;;;;;;4.00;3.67;;;23.50;99.90;;;;;;5028538;28;20900;-75
2022/06/27 09:54:10;;;;;;;5.93;3.73;;;23.70;99.90;;;;;;5023870;28;20442;-75
2022/06/27 09:56:41;;;;;;;6.30;4.10;;;23.60;99.90;;;;;;5009428;28;20459;-75
2022/06/27 09:59:11;;;;;;;6.57;3.60;;;23.60;99.90;;;;;;5016074;28;20486;-75
2022/06/27 10:01:38;;;;;;;4.60;2.60;;;23.70;99.90;;;;;;5024371;28;20484;-75
2022/06/27 10:04:06;;;;;;;4.87;2.50;;;23.80;99.90;;;;;;5015166;28;20458;-75
2022/06/27 10:06:33;;;;;;;3.60;2.00;;;23.80;99.90;;;;;;5023125;28;20473;-74
2022/06/27 10:09:01;;;;;;;5.23;2.83;;;24.00;99.90;;;;;;5024770;28;20461;-74
2022/06/27 10:11:28;;;;;;;3.70;2.73;;;24.20;99.90;;;;;;5024508;28;21014;-76
2022/06/27 10:14:15;;;;;;;3.10;2.80;;;24.70;99.90;;;;;;5025103;28;20454;-75
2022/06/27 10:16:55;;;;;;;2.83;2.23;;;25.00;99.90;;;;;;5012927;28;20454;-75
2022/06/27 10:19:24;;;;;;;5.10;2.10;;;25.40;99.90;;;;;;5013586;28;20469;-75
2022/06/27 10:21:52;;;;;;;2.43;2.23;;;25.60;99.90;;;;;;5013411;28;20534;-75
2022/06/27 10:24:34;;;;;;;2.80;2.33;;;25.70;99.90;;;;;;5017055;28;21265;-75
2022/06/27 10:27:03;;;;;;;3.27;2.10;;;26.10;99.90;;;;;;5012760;28;20458;-74
2022/06/27 10:29:37;;;;;;;1.83;1.73;;;26.00;99.90;;;;;;5011451;28;20958;-76
2022/06/27 10:32:06;;;;;;;2.00;1.80;;;26.10;99.90;;;;;;5018488;28;20524;-75
2022/06/27 10:35:11;;;;;;;2.10;1.90;;;26.30;99.90;;;;;;5012873;28;20509;-75
2022/06/27 10:37:40;;;;;;;2.80;1.97;;;26.70;99.90;;;;;;5009207;28;20516;-75
2022/06/27 10:40:50;;;;;;;5.80;2.20;;;26.70;99.90;;;;;;5013578;28;20482;-75
2022/06/27 10:43:41;;;;;;;2.23;2.03;;;26.30;99.90;;;;;;5022265;28;20454;-74
2022/06/27 10:46:43;;;;;;;2.07;1.87;;;25.70;99.90;;;;;;5015345;28;20462;-75
2022/06/27 10:49:25;;;;;;;2.17;1.97;;;25.50;99.90;;;;;;5030570;28;20460;-75
2022/06/27 10:51:52;;;;;;;2.50;2.30;;;25.20;99.90;;;;;;5011783;28;20486;-75
2022/06/27 10:54:20;;;;;;;2.57;2.33;;;25.20;99.90;;;;;;5017780;28;20954;-74
2022/06/27 10:56:48;;;;;;;9.43;2.57;;;25.20;99.90;;;;;;5019493;28;21034;-74
2022/06/27 11:00:02;;;;;;;3.63;2.60;;;25.10;99.90;;;;;;5022352;28;20958;-73
2022/06/27 11:02:33;;;;;;;2.90;2.70;;;24.90;99.90;;;;;;5011495;28;20485;-74
2022/06/27 11:05:01;;;;;;;3.70;3.30;;;24.50;99.90;;;;;;5021002;28;20462;-74
2022/06/27 11:07:28;;;;;;;3.60;3.30;;;23.90;99.90;;;;;;5025834;28;20454;-75
2022/06/27 11:09:55;;;;;;;4.03;3.10;;;23.60;99.90;;;;;;5027610;28;20866;-74
2022/06/27 11:12:28;;;;;;;4.03;3.63;;;23.50;99.90;;;;;;5012307;28;20481;-74
2022/06/27 11:14:58;;;;;;;4.40;4.10;;;23.50;99.90;;;;;;5011399;28;20458;-74
2022/06/27 11:17:43;;;;;;;10.60;4.27;;;23.40;99.90;;;;;;5013082;28;20898;-74
2022/06/27 11:20:16;;;;;;;4.80;4.37;;;23.20;99.90;;;;;;5009558;28;20564;-75
2022/06/27 11:22:44;;;;;;;4.90;4.13;;;23.20;99.90;;;;;;5010138;28;20493;-74
2022/06/27 11:25:11;;;;;;;5.70;4.23;;;23.20;99.90;;;;;;5010737;28;20458;-74
2022/06/27 11:27:49;;;;;;;5.23;3.83;;;23.00;99.90;;;;;;5006394;28;20524;-74
2022/06/27 11:33:27;;;;;;;10.90;4.53;;;22.50;99.90;;;;;;5016705;28;20445;-74
2022/06/27 11:35:54;;;;;;;4.43;3.63;;;22.40;99.90;;;;;;5030681;28;20464;-74
2022/06/27 11:38:29;;;;;;;6.07;3.40;;;22.20;99.90;;;;;;5022266;28;20590;-75
2022/06/27 11:41:03;;;;;;;3.43;3.23;;;22.00;99.90;;;;;;5017258;28;20581;-75
2022/06/27 11:43:49;;;;;;;3.47;3.23;;;22.00;99.90;;;;;;5020538;28;20453;-75
2022/06/27 11:46:28;;;;;;;3.83;3.50;;;22.00;99.90;;;;;;5027226;28;20840;-74
2022/06/27 11:48:58;;;;;;;3.73;3.43;;;21.90;99.90;;;;;;5028506;28;20456;-75
2022/06/27 11:51:28;;;;;;;3.83;3.23;;;21.80;99.90;;;;;;5025566;28;20852;-75
2022/06/27 11:53:57;;;;;;;7.27;4.00;;;21.90;99.90;;;;;;5017859;28;20522;-74
2022/06/27 11:56:26;;;;;;;4.30;3.90;;;21.90;99.90;;;;;;5021319;28;20469;-74
2022/06/27 11:58:55;;;;;;;3.80;3.50;;;21.90;99.90;;;;;;5015990;28;20874;-74
2022/06/27 12:01:22;;;;;;;3.47;3.27;;;21.70;99.90;;;;;;5025040;28;20888;-73
2022/06/27 12:04:26;;;;;;;5.37;3.80;;;21.80;99.90;;;;;;5023699;28;20524;-75
2022/06/27 12:06:56;;;;;;;5.17;3.77;;;21.90;99.90;;;;;;5011272;28;20585;-74
2022/06/27 12:09:25;;;;;;;4.00;3.70;;;21.90;99.90;;;;;;5012573;28;20450;-75
2022/06/27 12:12:01;;;;;;;7.87;4.23;;;21.80;99.90;;;;;;5019148;28;20478;-74
2022/06/27 12:14:29;;;;;;;5.87;4.37;;;21.90;99.90;;;;;;5025240;28;20535;-74
2022/06/27 12:16:58;;;;;;;4.30;3.93;;;21.80;99.90;;;;;;5024314;28;20450;-74
2022/06/27 12:19:29;;;;;;;4.20;4.00;;;21.90;99.90;;;;;;5010858;28;20458;-75
2022/06/27 12:21:55;;;;;;;4.60;4.20;;;21.90;99.90;;;;;;5009916;28;20462;-74
2022/06/27 12:24:22;;;;;;;4.50;4.20;;;22.00;99.90;;;;;;5013595;28;20546;-74
2022/06/27 12:26:49;;;;;;;5.63;4.70;;;22.00;99.90;;;;;;5006627;28;20543;-74
2022/06/27 12:29:17;;;;;;;6.10;4.10;;;21.90;99.90;;;;;;5027514;28;20508;-74
2022/06/27 12:31:44;;;;;;;5.50;3.50;;;21.80;99.90;;;;;;5031828;28;21928;-74
2022/06/27 12:34:11;;;;;;;4.53;4.13;;;21.80;99.90;;;;;;5015032;28;20898;-74
2022/06/27 12:36:39;;;;;;;4.57;4.17;;;21.90;99.90;;;;;;5023974;28;20939;-75
2022/06/27 12:39:07;;;;;;;4.27;3.57;;;22.00;99.90;;;;;;5030753;28;20460;-74
2022/06/27 12:41:35;;;;;;;4.17;3.87;;;22.10;99.90;;;;;;5021769;28;20497;-74
2022/06/27 12:44:02;;;;;;;3.90;3.60;;;22.10;99.90;;;;;;5022670;28;20462;-74
2022/06/27 12:46:29;;;;;;;11.20;4.10;;;22.20;99.90;;;;;;5029742;28;20984;-74
2022/06/27 12:48:56;;;;;;;6.53;3.97;;;22.30;99.90;;;;;;5018204;28;20969;-74
2022/06/27 12:51:25;;;;;;;4.57;4.10;;;22.50;99.90;;;;;;5026667;28;20531;-73
2022/06/27 12:53:54;;;;;;;3.47;3.27;;;22.70;99.90;;;;;;5029515;28;20489;-74
2022/06/27 12:56:22;;;;;;;5.20;3.30;;;22.90;99.90;;;;;;5014357;28;20843;-75
2022/06/27 12:58:49;;;;;;;5.37;2.90;;;23.30;99.90;;;;;;5018201;28;20473;-74